Terminal Aerodrome Forecast
Issued by NWS

Home | Current Version | Previous Version | Text Only | Print | Product List | Glossary On
Versions: 1 2 3 4 5 6 7 8 9 10 11 12 13 14 15 16 17 18 19 20 21 22 23 24 25 26 27 28 29 30 31 32
000
FTUS45 KGGW 271837 AAA
TAFOLF
TAF AMD
KOLF 271837Z 2719/2818 07012KT P6SM VCSH SCT007 OVC015
     FM272100 07011KT P6SM BKN009
     FM280000 08007KT P6SM BKN015
     FM280500 07005KT P6SM BKN025
     FM280800 07005KT P6SM BKN010=

USA.gov is the U.S. government's official web portal to all federal, state and local government web resources and services.